Time;durP1;ratioP1;P1;durP2;ratioP2;P2;SDS_P1;SDS_P2;PMS_P1;PMS_P2;Temp;Humidity;BMP_temperature;BMP_pressure;BME280_temperature;BME280_humidity;BME280_pressure;Samples;Min_cycle;Max_cycle;Signal;HPM_P1;HPM_P2
2022/03/23 00:01:17;;;;;;;31.00;13.60;;;11.10;97.40;;;;;;5008110;28;20431;-38
2022/03/23 00:03:44;;;;;;;26.33;12.70;;;11.10;97.50;;;;;;5004951;28;20042;-39
2022/03/23 00:06:12;;;;;;;35.85;14.13;;;11.00;97.60;;;;;;5005847;28;20331;-38
2022/03/23 00:08:37;;;;;;;35.72;12.82;;;11.00;97.70;;;;;;5004164;28;20034;-55
2022/03/23 00:11:03;;;;;;;29.48;11.65;;;11.00;97.70;;;;;;4987465;28;20052;-38
2022/03/23 00:13:29;;;;;;;28.67;13.25;;;11.10;97.70;;;;;;5006777;28;20070;-38
2022/03/23 00:15:54;;;;;;;32.70;13.73;;;11.00;97.80;;;;;;5004750;28;20029;-38
2022/03/23 00:18:20;;;;;;;31.15;13.18;;;11.00;97.90;;;;;;4987415;28;20052;-39
2022/03/23 00:20:45;;;;;;;36.55;14.75;;;10.90;97.90;;;;;;4985863;28;20034;-37
2022/03/23 00:23:12;;;;;;;32.25;13.93;;;10.90;98.10;;;;;;5004348;28;20115;-37
2022/03/23 00:25:38;;;;;;;35.95;14.00;;;11.00;98.10;;;;;;5007704;28;20033;-46
2022/03/23 00:28:05;;;;;;;39.47;13.70;;;10.90;98.00;;;;;;5005956;28;20501;-35
2022/03/23 00:30:32;;;;;;;29.88;13.52;;;10.90;98.10;;;;;;5008655;28;20022;-37
2022/03/23 00:32:58;;;;;;;36.83;14.77;;;10.90;98.20;;;;;;5005324;28;20022;-37
2022/03/23 00:35:24;;;;;;;26.70;12.18;;;10.80;98.10;;;;;;5004899;28;20092;-36
2022/03/23 00:37:50;;;;;;;26.13;12.77;;;10.80;98.10;;;;;;5005792;28;20065;-38
2022/03/23 00:40:16;;;;;;;34.97;12.73;;;10.70;98.20;;;;;;4991461;28;20049;-38
2022/03/23 00:42:42;;;;;;;29.58;13.15;;;10.70;98.20;;;;;;5009130;28;20033;-37
2022/03/23 00:45:11;;;;;;;40.20;13.02;;;10.80;98.30;;;;;;5008396;28;20025;-37
2022/03/23 00:47:37;;;;;;;25.77;11.82;;;10.80;98.20;;;;;;5008058;28;20548;-38
2022/03/23 00:50:04;;;;;;;31.77;11.57;;;10.80;98.20;;;;;;5007406;28;20496;-41
2022/03/23 00:52:30;;;;;;;23.65;11.63;;;10.70;98.20;;;;;;5008651;28;20387;-45
2022/03/23 00:54:56;;;;;;;34.55;13.18;;;10.60;98.30;;;;;;4993970;28;20068;-33
2022/03/23 00:57:21;;;;;;;37.20;12.85;;;10.60;98.20;;;;;;5006388;28;20041;-34
2022/03/23 00:59:47;;;;;;;28.10;12.32;;;10.60;98.10;;;;;;5007842;28;20029;-37
2022/03/23 01:02:14;;;;;;;24.92;12.90;;;10.60;98.00;;;;;;5007254;28;20036;-38
2022/03/23 01:04:39;;;;;;;33.33;12.50;;;10.70;98.10;;;;;;5007714;28;20025;-37
2022/03/23 01:07:05;;;;;;;31.17;12.18;;;10.60;98.00;;;;;;5007497;28;20022;-37
2022/03/23 01:09:31;;;;;;;25.25;12.15;;;10.60;98.10;;;;;;5007793;28;20033;-36
2022/03/23 01:11:57;;;;;;;29.48;12.57;;;10.60;98.30;;;;;;5013274;28;20045;-39
2022/03/23 01:14:24;;;;;;;28.40;12.10;;;10.60;98.30;;;;;;5012037;28;20022;-37
2022/03/23 01:16:51;;;;;;;30.05;12.90;;;10.60;98.30;;;;;;5008530;28;20056;-34
2022/03/23 01:19:19;;;;;;;26.88;10.98;;;10.50;98.30;;;;;;5010397;28;20445;-39
2022/03/23 01:21:45;;;;;;;32.47;12.35;;;10.50;98.30;;;;;;5009881;28;20121;-66
2022/03/23 01:24:11;;;;;;;28.33;11.45;;;10.40;98.30;;;;;;5009939;28;20120;-37
2022/03/23 01:26:37;;;;;;;33.90;12.13;;;10.30;98.50;;;;;;5015062;28;20110;-38
2022/03/23 01:29:03;;;;;;;27.20;11.52;;;10.20;98.60;;;;;;5014505;28;20026;-38
2022/03/23 01:31:30;;;;;;;28.35;12.23;;;10.10;98.70;;;;;;5010529;28;20034;-37
2022/03/23 01:33:59;;;;;;;28.08;12.02;;;10.10;98.70;;;;;;5012837;28;20022;-38
2022/03/23 01:36:29;;;;;;;31.55;13.38;;;10.00;98.90;;;;;;5010909;28;20029;-51
2022/03/23 01:38:55;;;;;;;26.48;11.90;;;9.90;99.00;;;;;;5013172;28;20115;-47
2022/03/23 01:41:21;;;;;;;34.50;12.30;;;9.90;99.10;;;;;;5014281;28;20072;-40
2022/03/23 01:43:48;;;;;;;29.15;12.80;;;9.90;99.20;;;;;;5010009;28;20026;-37
2022/03/23 01:46:17;;;;;;;28.48;12.15;;;9.80;99.20;;;;;;5012972;28;20359;-36
2022/03/23 01:48:43;;;;;;;30.02;11.93;;;9.80;99.30;;;;;;5012908;28;20587;-34
2022/03/23 01:51:09;;;;;;;31.27;11.80;;;9.70;99.30;;;;;;5013045;28;20030;-31
2022/03/23 01:53:34;;;;;;;22.95;11.52;;;9.70;99.30;;;;;;5013063;28;20018;-31
2022/03/23 01:56:00;;;;;;;28.73;12.48;;;9.70;99.40;;;;;;5014082;28;20022;-34
2022/03/23 01:58:25;;;;;;;28.75;12.50;;;9.60;99.40;;;;;;5012465;28;20080;-34
2022/03/23 02:00:51;;;;;;;30.38;12.13;;;9.50;99.50;;;;;;5013621;28;20014;-31
2022/03/23 02:03:17;;;;;;;34.67;12.70;;;9.50;99.60;;;;;;4994978;28;20414;-36
2022/03/23 02:05:43;;;;;;;39.63;12.20;;;9.40;99.70;;;;;;5013858;28;20022;-35
2022/03/23 02:08:10;;;;;;;34.85;13.98;;;9.40;99.80;;;;;;5006459;28;20097;-36
2022/03/23 02:10:36;;;;;;;25.83;11.33;;;9.40;99.90;;;;;;5014011;28;20028;-49
2022/03/23 02:13:02;;;;;;;29.27;11.80;;;9.40;99.90;;;;;;5011232;28;20037;-37
2022/03/23 02:15:29;;;;;;;26.15;12.23;;;9.30;99.90;;;;;;5009657;28;20367;-33
2022/03/23 02:17:56;;;;;;;19.05;8.57;;;9.30;99.90;;;;;;5013502;28;20032;-68
2022/03/23 02:20:24;;;;;;;17.90;8.48;;;9.20;99.90;;;;;;5012931;28;20037;-38
2022/03/23 02:22:50;;;;;;;24.80;11.75;;;9.20;99.90;;;;;;5012801;28;20393;-48
2022/03/23 02:25:25;;;;;;;33.65;10.98;;;9.10;99.90;;;;;;5012722;28;20023;-38
2022/03/23 02:27:52;;;;;;;34.47;13.32;;;9.00;99.90;;;;;;5011212;28;20382;-38
2022/03/23 02:30:18;;;;;;;36.00;11.70;;;9.00;99.90;;;;;;5009623;28;20014;-38
2022/03/23 02:32:45;;;;;;;29.98;12.75;;;9.10;99.90;;;;;;5013697;28;20030;-37
2022/03/23 02:35:15;;;;;;;28.83;13.93;;;9.20;99.90;;;;;;4988243;28;20026;-36
2022/03/23 02:37:41;;;;;;;34.90;12.65;;;9.20;99.90;;;;;;5013059;28;20041;-38
2022/03/23 02:40:08;;;;;;;34.47;14.02;;;9.40;99.90;;;;;;5012160;28;20486;-38
2022/03/23 02:42:34;;;;;;;34.42;13.52;;;9.40;99.90;;;;;;5012379;28;20044;-38
2022/03/23 02:45:00;;;;;;;36.58;13.40;;;9.30;99.90;;;;;;4993430;28;20025;-38
2022/03/23 02:47:26;;;;;;;28.05;13.30;;;9.30;99.90;;;;;;5012620;28;20029;-39
2022/03/23 02:49:51;;;;;;;41.70;15.43;;;9.20;99.90;;;;;;4994981;28;20029;-38
2022/03/23 02:52:17;;;;;;;26.75;13.35;;;9.20;99.90;;;;;;4996010;28;20042;-38
2022/03/23 03:03:07;;;;;;;34.03;13.63;;;9.10;99.90;;;;;;5013350;28;20099;-37
2022/03/23 03:05:33;;;;;;;30.77;14.02;;;9.10;99.90;;;;;;5012837;28;20029;-38
2022/03/23 03:10:43;;;;;;;30.30;13.60;;;8.90;99.90;;;;;;5013022;28;20100;-36
2022/03/23 03:13:08;;;;;;;33.67;13.02;;;8.80;99.90;;;;;;4995007;28;20260;-38
2022/03/23 03:15:34;;;;;;;36.78;13.55;;;8.80;99.90;;;;;;5010728;28;20532;-37
2022/03/23 03:18:00;;;;;;;35.40;13.85;;;8.70;99.90;;;;;;4993823;28;20088;-37
2022/03/23 03:20:26;;;;;;;30.38;14.65;;;8.70;99.90;;;;;;5011756;28;20022;-34
2022/03/23 03:22:52;;;;;;;26.60;13.77;;;8.60;99.90;;;;;;5012979;28;20113;-38
2022/03/23 03:25:20;;;;;;;35.25;13.85;;;8.50;99.90;;;;;;5010761;28;20025;-39
2022/03/23 03:27:46;;;;;;;32.20;13.43;;;8.50;99.90;;;;;;5011941;28;20034;-37
2022/03/23 03:30:14;;;;;;;35.30;14.07;;;8.40;99.90;;;;;;5008543;28;20565;-38
2022/03/23 03:32:40;;;;;;;29.42;13.27;;;8.30;99.90;;;;;;5012790;28;20040;-38
2022/03/23 03:35:07;;;;;;;30.33;14.15;;;8.30;99.90;;;;;;5011460;28;20120;-63
2022/03/23 03:37:33;;;;;;;35.78;14.73;;;8.20;99.90;;;;;;5007781;28;20030;-36
2022/03/23 03:39:59;;;;;;;32.95;13.88;;;8.20;99.90;;;;;;5006449;28;20033;-37
2022/03/23 03:42:26;;;;;;;32.20;13.85;;;8.20;99.90;;;;;;5009906;28;20026;-31
2022/03/23 03:44:51;;;;;;;24.88;12.95;;;8.20;99.90;;;;;;5008231;28;21187;-32
2022/03/23 03:47:19;;;;;;;28.83;13.10;;;8.10;99.90;;;;;;4995041;28;20029;-34
2022/03/23 03:49:45;;;;;;;30.53;14.13;;;8.10;99.90;;;;;;5012645;28;20513;-48
2022/03/23 03:52:10;;;;;;;26.08;12.57;;;8.00;99.90;;;;;;5011817;28;20308;-50
2022/03/23 03:54:36;;;;;;;34.63;13.60;;;7.90;99.90;;;;;;5010676;28;20021;-30
2022/03/23 03:57:02;;;;;;;33.35;13.27;;;7.90;99.90;;;;;;5012274;28;20044;-30
2022/03/23 03:59:28;;;;;;;30.58;13.85;;;7.80;99.90;;;;;;5012107;28;20084;-30
2022/03/23 04:01:54;;;;;;;29.80;12.32;;;7.80;99.90;;;;;;5011817;28;20512;-33
2022/03/23 04:04:19;;;;;;;31.80;12.15;;;7.80;99.90;;;;;;5012262;28;20034;-30
2022/03/23 04:06:45;;;;;;;38.50;13.93;;;7.90;99.90;;;;;;5013118;28;20044;-30
2022/03/23 04:09:11;;;;;;;36.00;14.65;;;7.90;99.90;;;;;;5010214;28;20033;-31
2022/03/23 04:11:36;;;;;;;30.25;13.18;;;7.90;99.90;;;;;;5012006;28;20018;-31
2022/03/23 04:14:02;;;;;;;34.55;14.48;;;7.90;99.90;;;;;;5013940;28;20054;-31
2022/03/23 04:16:28;;;;;;;38.63;14.68;;;8.10;99.90;;;;;;5015897;28;20092;-37
2022/03/23 04:18:53;;;;;;;27.40;13.15;;;8.10;99.90;;;;;;5013610;28;20025;-31
2022/03/23 04:21:19;;;;;;;32.95;14.00;;;8.10;99.90;;;;;;5014212;28;20034;-32
2022/03/23 04:23:45;;;;;;;33.17;13.85;;;8.10;99.90;;;;;;5014344;28;20026;-29
2022/03/23 04:26:11;;;;;;;32.60;14.25;;;8.00;99.90;;;;;;5014956;28;20026;-29
2022/03/23 04:28:36;;;;;;;30.65;13.63;;;7.90;99.90;;;;;;5015304;28;21617;-31
2022/03/23 04:31:02;;;;;;;37.05;14.30;;;8.00;99.90;;;;;;5015466;28;20033;-32
2022/03/23 04:36:13;;;;;;;33.47;15.13;;;8.00;99.90;;;;;;5016177;28;20088;-32
2022/03/23 04:38:38;;;;;;;31.73;14.18;;;7.90;99.90;;;;;;5013691;28;20486;-31
2022/03/23 04:41:04;;;;;;;36.45;14.30;;;8.00;99.90;;;;;;5014389;28;20025;-32
2022/03/23 04:43:31;;;;;;;30.38;14.13;;;8.00;99.90;;;;;;5014531;28;20037;-31
2022/03/23 04:45:57;;;;;;;36.15;14.38;;;7.90;99.90;;;;;;5011816;28;20538;-32
2022/03/23 04:48:22;;;;;;;35.08;13.82;;;8.00;99.90;;;;;;5014919;28;20053;-29
2022/03/23 04:50:48;;;;;;;42.13;14.18;;;8.00;99.90;;;;;;5013980;28;20135;-29
2022/03/23 04:53:15;;;;;;;32.80;14.70;;;8.00;99.90;;;;;;5016216;28;20482;-32
2022/03/23 04:55:40;;;;;;;28.90;13.43;;;8.00;99.90;;;;;;5015123;28;20030;-31
2022/03/23 04:58:06;;;;;;;34.58;13.77;;;7.90;99.90;;;;;;5015648;28;20045;-30
2022/03/23 05:00:33;;;;;;;34.28;13.27;;;7.90;99.90;;;;;;5014502;28;20038;-38
2022/03/23 05:02:58;;;;;;;32.80;14.80;;;7.90;99.90;;;;;;5014582;28;20381;-30
2022/03/23 05:05:24;;;;;;;33.03;13.07;;;7.90;99.90;;;;;;5015207;28;20025;-40
2022/03/23 05:07:50;;;;;;;32.08;14.52;;;7.80;99.90;;;;;;5016029;28;20532;-33
2022/03/23 05:10:15;;;;;;;36.90;13.38;;;7.70;99.90;;;;;;5013017;28;20022;-31
2022/03/23 05:12:43;;;;;;;27.35;14.02;;;7.60;99.90;;;;;;5013457;28;20046;-32
2022/03/23 05:15:09;;;;;;;40.83;14.27;;;7.50;99.90;;;;;;5014956;28;20496;-47
2022/03/23 05:17:36;;;;;;;31.13;13.65;;;7.40;99.90;;;;;;5015423;28;20379;-37
2022/03/23 05:20:04;;;;;;;31.73;14.55;;;7.30;99.90;;;;;;5013325;28;20026;-38
2022/03/23 05:22:30;;;;;;;29.08;13.13;;;7.30;99.90;;;;;;5015300;28;20092;-38
2022/03/23 05:24:56;;;;;;;37.83;15.07;;;7.30;99.90;;;;;;5014914;28;20029;-37
2022/03/23 05:27:21;;;;;;;32.65;13.90;;;7.20;99.90;;;;;;5015520;28;20026;-38
2022/03/23 05:29:47;;;;;;;40.85;15.40;;;7.10;99.90;;;;;;5015097;28;20152;-37
2022/03/23 05:32:16;;;;;;;36.00;14.43;;;7.10;99.90;;;;;;5009149;28;20027;-37
2022/03/23 05:34:45;;;;;;;34.55;14.50;;;7.00;99.90;;;;;;5005148;28;20044;-37
2022/03/23 05:37:11;;;;;;;41.20;14.13;;;7.00;99.90;;;;;;5013526;28;20489;-38
2022/03/23 05:39:38;;;;;;;35.72;14.63;;;7.00;99.90;;;;;;5014956;28;20022;-37
2022/03/23 05:42:04;;;;;;;36.10;14.63;;;7.00;99.90;;;;;;4984919;28;20490;-39
2022/03/23 05:44:29;;;;;;;39.75;16.45;;;7.10;99.90;;;;;;5015038;28;20061;-66
2022/03/23 05:46:55;;;;;;;36.35;14.18;;;7.00;99.90;;;;;;4997368;28;20022;-36
2022/03/23 05:49:21;;;;;;;33.63;14.77;;;7.00;99.90;;;;;;5013391;28;20025;-38
2022/03/23 05:51:46;;;;;;;29.08;13.05;;;7.00;99.90;;;;;;5009570;28;20103;-57
2022/03/23 05:54:12;;;;;;;36.35;15.02;;;7.00;99.90;;;;;;5013428;28;20454;-37
2022/03/23 05:56:37;;;;;;;43.13;15.60;;;6.90;99.90;;;;;;5014347;28;20030;-38
2022/03/23 05:59:03;;;;;;;30.98;13.60;;;6.90;99.90;;;;;;5014451;28;20057;-31
2022/03/23 06:01:29;;;;;;;42.15;14.55;;;7.00;99.90;;;;;;5013894;28;20444;-29
2022/03/23 06:03:54;;;;;;;34.10;14.25;;;7.00;99.90;;;;;;5014298;28;20038;-30
2022/03/23 06:06:20;;;;;;;28.15;13.25;;;7.30;99.90;;;;;;5013859;28;20513;-30
2022/03/23 06:08:46;;;;;;;29.90;14.00;;;7.40;99.90;;;;;;5013257;28;20029;-29
2022/03/23 06:11:11;;;;;;;32.67;14.38;;;7.40;99.90;;;;;;5012497;28;20026;-32
2022/03/23 06:13:37;;;;;;;33.33;15.15;;;7.40;99.90;;;;;;4995085;28;20038;-30
2022/03/23 06:16:03;;;;;;;36.05;14.50;;;7.40;99.90;;;;;;5013796;28;20022;-29
2022/03/23 06:18:29;;;;;;;31.63;13.95;;;7.50;99.90;;;;;;5012989;28;20482;-32
2022/03/23 06:20:54;;;;;;;31.30;13.23;;;7.50;99.90;;;;;;5012852;28;20026;-29
2022/03/23 06:23:20;;;;;;;33.60;14.10;;;7.60;99.90;;;;;;5012807;28;20041;-29
2022/03/23 06:25:45;;;;;;;30.48;13.98;;;7.70;99.90;;;;;;5013055;28;20108;-31
2022/03/23 06:28:11;;;;;;;33.42;14.05;;;7.90;99.90;;;;;;4995514;28;20029;-29
2022/03/23 06:30:37;;;;;;;39.80;14.90;;;8.10;99.90;;;;;;5012190;28;20548;-30
2022/03/23 06:33:02;;;;;;;35.58;13.52;;;8.10;99.90;;;;;;5012933;28;20065;-51
2022/03/23 06:35:29;;;;;;;30.52;13.30;;;8.20;99.90;;;;;;5012825;28;20026;-36
2022/03/23 06:37:55;;;;;;;36.65;14.00;;;8.30;99.90;;;;;;5013971;28;20069;-29
2022/03/23 06:40:21;;;;;;;39.63;15.90;;;8.40;99.90;;;;;;5007085;28;20141;-29
2022/03/23 06:42:47;;;;;;;27.75;13.70;;;8.40;99.90;;;;;;5008097;28;20089;-33
2022/03/23 06:45:13;;;;;;;31.85;14.00;;;8.50;99.90;;;;;;5009851;28;20026;-33
2022/03/23 06:47:39;;;;;;;35.22;14.95;;;8.60;99.90;;;;;;5011817;28;20465;-39
2022/03/23 06:50:05;;;;;;;39.70;14.93;;;8.70;99.90;;;;;;5010188;28;20038;-30
2022/03/23 06:52:31;;;;;;;37.50;14.48;;;8.80;99.90;;;;;;5013329;28;20022;-32
2022/03/23 06:54:57;;;;;;;25.00;12.82;;;8.80;99.90;;;;;;5012692;28;20373;-31
2022/03/23 06:57:22;;;;;;;38.30;14.73;;;8.80;99.90;;;;;;5012543;28;20112;-31
2022/03/23 06:59:48;;;;;;;33.78;14.68;;;8.90;99.90;;;;;;5009350;28;20034;-32
2022/03/23 07:02:14;;;;;;;32.25;13.95;;;9.00;99.90;;;;;;5011601;28;20116;-32
2022/03/23 07:04:39;;;;;;;33.85;14.32;;;9.00;99.90;;;;;;5012282;28;20022;-34
2022/03/23 07:07:05;;;;;;;30.67;13.13;;;9.10;99.90;;;;;;5013100;28;20022;-31
2022/03/23 07:09:31;;;;;;;34.38;13.98;;;9.30;99.90;;;;;;5011375;28;20097;-33
2022/03/23 07:11:57;;;;;;;43.30;13.52;;;9.50;99.90;;;;;;5011213;28;20577;-33
2022/03/23 07:14:23;;;;;;;36.80;14.10;;;9.60;99.90;;;;;;4992733;28;20589;-30
2022/03/23 07:16:49;;;;;;;31.30;13.23;;;9.70;99.90;;;;;;5012082;28;20052;-34
2022/03/23 07:19:14;;;;;;;34.88;14.77;;;10.00;99.90;;;;;;5010466;28;20056;-37
2022/03/23 07:21:40;;;;;;;32.63;14.63;;;10.10;99.90;;;;;;5010943;28;20490;-36
2022/03/23 07:24:06;;;;;;;31.73;13.13;;;10.30;99.90;;;;;;5009944;28;20030;-32
2022/03/23 07:26:32;;;;;;;30.38;12.43;;;10.40;99.90;;;;;;5008588;28;20061;-32
2022/03/23 07:28:58;;;;;;;34.28;13.45;;;10.50;99.40;;;;;;5009580;28;20033;-30
2022/03/23 07:31:23;;;;;;;24.75;12.75;;;10.70;99.20;;;;;;5012001;28;20034;-34
2022/03/23 07:33:50;;;;;;;35.75;15.25;;;10.80;99.00;;;;;;5009212;28;20108;-36
2022/03/23 07:36:16;;;;;;;36.63;13.73;;;10.80;98.60;;;;;;5010702;28;20394;-31
2022/03/23 07:38:41;;;;;;;29.55;13.15;;;11.00;98.40;;;;;;5007030;28;20022;-37
2022/03/23 07:41:07;;;;;;;27.73;12.82;;;11.00;98.50;;;;;;5010355;28;20371;-30
2022/03/23 07:43:32;;;;;;;32.33;14.25;;;11.10;98.30;;;;;;5008298;28;20058;-33
2022/03/23 07:45:58;;;;;;;37.90;14.07;;;11.20;98.20;;;;;;5010431;28;20474;-31
2022/03/23 07:48:24;;;;;;;27.45;12.90;;;11.30;98.40;;;;;;5010152;28;20473;-31
2022/03/23 07:50:51;;;;;;;33.47;13.85;;;11.40;98.20;;;;;;5011696;28;20437;-31
2022/03/23 07:53:17;;;;;;;30.13;13.02;;;11.40;98.40;;;;;;5012027;28;20105;-31
2022/03/23 07:55:43;;;;;;;32.70;13.05;;;11.40;98.10;;;;;;5012259;28;20474;-34
2022/03/23 07:58:09;;;;;;;33.53;13.80;;;11.50;97.80;;;;;;5008534;28;20030;-38
2022/03/23 08:00:34;;;;;;;29.45;12.77;;;11.60;98.10;;;;;;5010867;28;20030;-31
2022/03/23 08:03:00;;;;;;;35.75;14.25;;;11.70;98.30;;;;;;5009642;28;20030;-33
2022/03/23 08:05:26;;;;;;;34.30;14.18;;;11.80;98.00;;;;;;4994645;28;20113;-32
2022/03/23 08:07:52;;;;;;;31.10;14.20;;;11.90;98.00;;;;;;5009660;28;20037;-32
2022/03/23 08:10:18;;;;;;;31.27;13.95;;;12.00;97.70;;;;;;5011257;28;20025;-38
2022/03/23 08:12:43;;;;;;;26.55;13.40;;;12.00;97.90;;;;;;4994206;28;20045;-31
2022/03/23 08:15:09;;;;;;;30.67;13.98;;;12.10;97.50;;;;;;5011115;28;20029;-33
2022/03/23 08:17:38;;;;;;;30.08;14.10;;;12.20;97.30;;;;;;5011344;28;20026;-38
2022/03/23 08:22:51;;;;;;;32.83;13.75;;;12.40;96.90;;;;;;5003531;28;20092;-32
2022/03/23 08:25:17;;;;;;;27.23;14.43;;;12.50;96.80;;;;;;5006684;28;20463;-31
2022/03/23 08:27:42;;;;;;;37.83;15.48;;;12.60;96.40;;;;;;5008459;28;20064;-35
2022/03/23 08:30:09;;;;;;;32.15;14.07;;;12.70;96.30;;;;;;5009385;28;20113;-35
2022/03/23 08:32:34;;;;;;;31.42;13.43;;;12.90;96.40;;;;;;5010922;28;20423;-30
2022/03/23 08:35:00;;;;;;;31.08;14.73;;;12.90;96.40;;;;;;4994589;28;20022;-30
2022/03/23 08:37:26;;;;;;;33.88;15.45;;;13.00;96.20;;;;;;5010612;28;20049;-30
2022/03/23 08:39:52;;;;;;;37.65;13.95;;;13.10;95.60;;;;;;5010637;28;20354;-29
2022/03/23 08:42:18;;;;;;;30.67;15.38;;;13.10;95.70;;;;;;5009341;28;20028;-30
2022/03/23 08:44:45;;;;;;;32.92;14.13;;;13.10;95.70;;;;;;5010410;28;20080;-30
2022/03/23 08:47:12;;;;;;;30.63;16.03;;;13.20;95.70;;;;;;5010654;28;20466;-36
2022/03/23 08:49:38;;;;;;;32.27;14.10;;;13.20;95.50;;;;;;4988857;28;20037;-35
2022/03/23 08:52:04;;;;;;;32.88;14.38;;;13.30;95.50;;;;;;5003205;28;20393;-30
2022/03/23 08:54:30;;;;;;;43.70;16.40;;;13.40;95.40;;;;;;5003963;28;20026;-34
2022/03/23 08:56:56;;;;;;;28.80;14.77;;;13.50;95.30;;;;;;5005600;28;20022;-31
2022/03/23 08:59:22;;;;;;;30.83;14.98;;;13.60;95.20;;;;;;5005562;28;20025;-37
2022/03/23 09:01:48;;;;;;;30.15;14.95;;;13.60;94.90;;;;;;5013601;28;20033;-47
2022/03/23 09:04:14;;;;;;;34.67;14.50;;;13.90;94.40;;;;;;4992777;28;20363;-39
2022/03/23 09:06:40;;;;;;;30.60;13.93;;;14.00;94.40;;;;;;5011664;28;20026;-37
2022/03/23 09:09:06;;;;;;;34.05;14.85;;;14.20;93.80;;;;;;5014333;28;20036;-37
2022/03/23 09:11:32;;;;;;;33.42;14.77;;;14.30;94.10;;;;;;5013050;28;20089;-37
2022/03/23 09:13:58;;;;;;;28.88;14.00;;;14.50;93.20;;;;;;4993557;28;20054;-37
2022/03/23 09:16:23;;;;;;;37.22;14.98;;;14.70;93.60;;;;;;5011249;28;20065;-37
2022/03/23 09:18:49;;;;;;;33.30;14.90;;;14.60;93.30;;;;;;5009969;28;20034;-38
2022/03/23 09:21:16;;;;;;;32.85;15.30;;;14.80;93.30;;;;;;5006962;28;20519;-39
2022/03/23 09:23:41;;;;;;;31.75;14.70;;;15.00;93.30;;;;;;5008164;28;20462;-30
2022/03/23 09:26:11;;;;;;;32.05;14.52;;;15.00;93.10;;;;;;5006818;28;20026;-31
2022/03/23 09:28:37;;;;;;;30.17;14.32;;;15.20;92.80;;;;;;5007120;28;20022;-31
2022/03/23 09:31:03;;;;;;;29.65;15.25;;;15.30;92.60;;;;;;5010846;28;20045;-30
2022/03/23 09:33:29;;;;;;;30.85;15.18;;;15.40;92.50;;;;;;5007196;28;20038;-31
2022/03/23 09:35:55;;;;;;;32.78;15.02;;;15.50;92.20;;;;;;5009885;28;21358;-31
2022/03/23 09:38:20;;;;;;;38.88;15.52;;;15.60;92.60;;;;;;5009624;28;20057;-31
2022/03/23 09:40:49;;;;;;;29.17;14.63;;;15.70;92.60;;;;;;5013861;28;20030;-29
2022/03/23 09:43:19;;;;;;;30.77;14.43;;;15.90;92.00;;;;;;5015463;28;20022;-34
2022/03/23 09:48:11;;;;;;;29.70;13.23;;;16.20;91.30;;;;;;5012364;28;20117;-33
2022/03/23 09:50:40;;;;;;;28.33;13.43;;;16.50;89.90;;;;;;5014011;28;20069;-32
2022/03/23 09:53:06;;;;;;;34.75;14.00;;;16.70;90.30;;;;;;5014079;28;20057;-33
2022/03/23 09:55:32;;;;;;;37.55;15.13;;;16.80;90.20;;;;;;5015073;28;20455;-30
2022/03/23 09:58:00;;;;;;;23.70;13.10;;;16.90;90.20;;;;;;5014928;28;20513;-35
2022/03/23 10:00:29;;;;;;;29.83;13.32;;;17.00;87.30;;;;;;5014631;28;20500;-30
2022/03/23 10:02:57;;;;;;;24.23;12.70;;;17.30;86.60;;;;;;5013278;28;20466;-30
2022/03/23 10:05:54;;;;;;;25.38;13.77;;;17.50;85.30;;;;;;5009392;28;20029;-31
2022/03/23 10:08:56;;;;;;;19.75;11.68;;;17.60;82.90;;;;;;5007116;28;20563;-31
2022/03/23 10:12:16;;;;;;;24.33;13.45;;;17.70;82.40;;;;;;5005389;28;20126;-32
2022/03/23 10:15:18;;;;;;;24.08;12.30;;;17.80;81.80;;;;;;4898356;29;20520;-32
2022/03/23 10:18:25;;;;;;;28.77;11.88;;;18.10;81.50;;;;;;5003757;28;20030;-31
2022/03/23 10:20:51;;;;;;;;;;;18.10;80.40;;;;;;5014166;28;20482;-30
2022/03/23 10:23:23;;;;;;;25.80;11.32;;;18.20;79.70;;;;;;5014850;28;19917;-33
2022/03/23 10:25:49;;;;;;;27.23;12.65;;;18.40;80.80;;;;;;5014317;28;20034;-30
2022/03/23 10:28:17;;;;;;;29.00;12.32;;;18.50;78.80;;;;;;5013664;28;20109;-34
2022/03/23 10:30:44;;;;;;;29.77;13.35;;;18.60;80.10;;;;;;5012147;28;20045;-32
2022/03/23 10:33:22;;;;;;;21.30;12.55;;;18.70;81.20;;;;;;5013175;28;20546;-37
2022/03/23 10:35:48;;;;;;;;;;;18.90;80.00;;;;;;5013471;28;20466;-30
2022/03/23 10:38:17;;;;;;;27.60;12.65;;;19.00;80.70;;;;;;5013683;28;20004;-34
2022/03/23 10:40:45;;;;;;;22.42;11.23;;;19.10;77.90;;;;;;5012470;28;20113;-30
2022/03/23 10:43:13;;;;;;;23.67;12.10;;;19.20;78.80;;;;;;5010490;28;20105;-30
2022/03/23 10:45:39;;;;;;;31.00;15.32;;;19.40;77.60;;;;;;5010692;28;20026;-32
2022/03/23 10:48:13;;;;;;;25.20;13.68;;;19.50;77.40;;;;;;5013083;28;20437;-33
2022/03/23 10:50:52;;;;;;;26.05;11.93;;;19.40;78.00;;;;;;5013122;28;20049;-34
2022/03/23 10:53:39;;;;;;;27.60;13.35;;;19.50;77.10;;;;;;5012301;28;20072;-32
2022/03/23 10:56:06;;;;;;;29.45;12.40;;;19.50;76.80;;;;;;5007723;28;21282;-37
2022/03/23 10:58:34;;;;;;;31.45;14.05;;;19.60;76.70;;;;;;5005960;28;20478;-32
2022/03/23 11:01:01;;;;;;;;;;;19.70;76.70;;;;;;5007082;28;20041;-37
2022/03/23 11:03:42;;;;;;;30.20;13.85;;;19.80;76.30;;;;;;5005148;28;20379;-37
2022/03/23 11:06:12;;;;;;;22.85;12.73;;;20.00;75.00;;;;;;5006040;28;20021;-41
2022/03/23 11:08:38;;;;;;;24.55;12.65;;;20.00;73.90;;;;;;5005946;28;20034;-33
2022/03/23 11:16:45;;;;;;;24.77;11.93;;;19.90;74.10;;;;;;5006132;28;20079;-34
2022/03/23 11:19:18;;;;;;;25.90;12.50;;;20.00;74.10;;;;;;5008972;28;20025;-31
2022/03/23 11:22:08;;;;;;;22.60;12.48;;;20.10;75.90;;;;;;5006524;28;20049;-32
2022/03/23 11:24:36;;;;;;;24.10;13.32;;;20.20;76.20;;;;;;5007380;28;20444;-40
2022/03/23 11:27:02;;;;;;;;;;;20.30;76.50;;;;;;5006020;28;20363;-37
2022/03/23 11:29:31;;;;;;;28.13;15.18;;;20.50;76.80;;;;;;5003838;28;19919;-31
2022/03/23 11:32:00;;;;;;;31.70;15.45;;;20.70;75.90;;;;;;4996747;28;20026;-39
2022/03/23 11:34:31;;;;;;;33.72;13.35;;;20.70;76.10;;;;;;4997308;28;20034;-32
2022/03/23 11:36:57;;;;;;;26.83;13.27;;;20.70;73.40;;;;;;4999737;28;20053;-36
2022/03/23 11:39:23;;;;;;;27.83;14.27;;;20.60;73.20;;;;;;5010997;28;20084;-34
2022/03/23 11:41:51;;;;;;;24.25;13.15;;;20.50;73.90;;;;;;5008406;28;20477;-31
2022/03/23 11:44:21;;;;;;;26.15;13.82;;;20.60;73.80;;;;;;5011389;28;20475;-32
2022/03/23 11:46:48;;;;;;;27.67;14.85;;;20.70;73.20;;;;;;5009500;28;20061;-31
2022/03/23 11:49:14;;;;;;;28.45;13.85;;;20.90;75.00;;;;;;5005909;28;20042;-33
2022/03/23 11:52:02;;;;;;;32.20;14.07;;;21.00;74.00;;;;;;5010873;28;20437;-33
2022/03/23 11:57:54;;;;;;;34.03;14.25;;;21.10;73.30;;;;;;4995433;28;20553;-32
2022/03/23 12:00:24;;;;;;;27.23;14.35;;;21.10;72.90;;;;;;4989613;28;20030;-34
2022/03/23 12:02:50;;;;;;;31.73;14.45;;;21.10;72.30;;;;;;5008231;28;20474;-33
2022/03/23 12:05:29;;;;;;;31.25;13.73;;;21.10;74.00;;;;;;4988562;28;20498;-34
2022/03/23 12:07:55;;;;;;;25.58;13.57;;;21.20;73.60;;;;;;5002144;28;20041;-33
2022/03/23 12:10:31;;;;;;;21.33;11.95;;;21.20;72.90;;;;;;5010953;28;20025;-31
2022/03/23 12:12:57;;;;;;;29.35;13.07;;;21.30;73.30;;;;;;5012004;28;20042;-32
2022/03/23 12:15:26;;;;;;;28.35;12.55;;;21.40;73.40;;;;;;5009932;28;20034;-34
2022/03/23 12:17:57;;;;;;;25.30;12.77;;;21.50;70.40;;;;;;4978228;28;20482;-32
2022/03/23 12:20:30;;;;;;;24.83;12.65;;;21.40;70.20;;;;;;5000359;28;20536;-34
2022/03/23 12:23:14;;;;;;;33.35;12.85;;;21.30;71.00;;;;;;5009329;28;20041;-35
2022/03/23 12:25:52;;;;;;;22.83;12.05;;;21.30;71.10;;;;;;5000475;28;20402;-33
2022/03/23 12:28:27;;;;;;;21.92;11.50;;;21.30;71.20;;;;;;5012042;28;20030;-33
2022/03/23 12:30:58;;;;;;;20.88;11.68;;;21.30;71.30;;;;;;5006526;28;20127;-35
2022/03/23 12:33:28;;;;;;;28.02;12.40;;;21.30;70.00;;;;;;5008993;28;20030;-38
2022/03/23 12:36:02;;;;;;;26.33;12.57;;;21.30;70.60;;;;;;5015327;28;20500;-31
2022/03/23 12:38:29;;;;;;;29.27;11.88;;;21.40;69.70;;;;;;5015005;28;20540;-29
2022/03/23 12:41:09;;;;;;;25.60;12.18;;;21.50;69.90;;;;;;5015935;28;20088;-32
2022/03/23 12:43:46;;;;;;;23.98;12.38;;;21.60;69.50;;;;;;5010254;28;20045;-29
2022/03/23 12:46:23;;;;;;;18.83;10.75;;;21.70;69.90;;;;;;5011182;28;20021;-32
2022/03/23 12:57:53;;;;;;;17.50;10.05;;;21.90;66.50;;;;;;5012848;28;20065;-32
2022/03/23 13:00:28;;;;;;;20.08;10.13;;;22.10;66.10;;;;;;5015121;28;20030;-34
2022/03/23 13:03:18;;;;;;;21.67;12.00;;;22.20;68.30;;;;;;5010429;28;20423;-40
2022/03/23 13:05:59;;;;;;;20.67;11.25;;;22.20;67.40;;;;;;5005724;28;20030;-34
2022/03/23 13:08:29;;;;;;;19.98;11.18;;;22.10;67.40;;;;;;5012796;28;20034;-35
2022/03/23 13:10:58;;;;;;;18.67;9.93;;;22.10;68.40;;;;;;5016341;28;20531;-32
2022/03/23 13:13:25;;;;;;;22.95;10.88;;;22.10;66.70;;;;;;5012949;28;20115;-65